Time;durP1;ratioP1;P1;durP2;ratioP2;P2;SDS_P1;SDS_P2;PMS_P1;PMS_P2;Temp;Humidity;BMP_temperature;BMP_pressure;BME280_temperature;BME280_humidity;BME280_pressure;Samples;Min_cycle;Max_cycle;Signal;HPM_P1;HPM_P2
2022/06/27 00:01:07;;;;;;;;;;;;;;;;;;5054493;28;20360;-76
2022/06/27 00:03:33;;;;;;;;;;;;;;;;;;5054375;28;19909;-75
2022/06/27 00:05:59;;;;;;;;;;;;;;;;;;5054910;28;19991;-74
2022/06/27 00:08:25;;;;;;;;;;;;;;;;;;5054160;28;19927;-73
2022/06/27 00:10:51;;;;;;;;;;;;;;;;;;5054490;28;20007;-75
2022/06/27 00:13:17;;;;;;;;;;;;;;;;;;5054556;28;19931;-75
2022/06/27 00:15:43;;;;;;;;;;;;;;;;;;5054708;28;19936;-75
2022/06/27 00:18:08;;;;;;;;;;;;;;;;;;5054120;28;19908;-77
2022/06/27 00:20:34;;;;;;;;;;;;;;;;;;5054359;28;20022;-74
2022/06/27 00:23:00;;;;;;;;;;;;;;;;;;5053102;28;20273;-75
2022/06/27 00:25:26;;;;;;;;;;;;;;;;;;5054028;28;19909;-73
2022/06/27 00:27:52;;;;;;;;;;;;;;;;;;5053986;28;19944;-75
2022/06/27 00:30:18;;;;;;;;;;;;;;;;;;5053880;28;19913;-74
2022/06/27 00:32:44;;;;;;;;;;;;;;;;;;5052641;28;19909;-73
2022/06/27 00:35:10;;;;;;;;;;;;;;;;;;5053919;28;19952;-76
2022/06/27 00:37:36;;;;;;;;;;;;;;;;;;5052604;28;19916;-74
2022/06/27 00:40:02;;;;;;;;;;;;;;;;;;5054081;28;19932;-74
2022/06/27 00:42:27;;;;;;;;;;;;;;;;;;5054070;28;19909;-74
2022/06/27 00:44:53;;;;;;;;;;;;;;;;;;5053762;28;19951;-73
2022/06/27 00:47:20;;;;;;;;;;;;;;;;;;5053711;28;19919;-74
2022/06/27 00:49:46;;;;;;;;;;;;;;;;;;5052344;28;20377;-75
2022/06/27 00:52:12;;;;;;;;;;;;;;;;;;5053655;28;19919;-73
2022/06/27 00:54:38;;;;;;;;;;;;;;;;;;5053941;28;19958;-75
2022/06/27 00:57:03;;;;;;;;;;;;;;;;;;5053615;28;19909;-74
2022/06/27 00:59:29;;;;;;;;;;;;;;;;;;5054220;28;20482;-75
2022/06/27 01:01:55;;;;;;;;;;;;;;;;;;5052238;28;19916;-74
2022/06/27 01:04:21;;;;;;;;;;;;;;;;;;5054109;28;20356;-73
2022/06/27 01:06:47;;;;;;;;;;;;;;;;;;5053449;28;19909;-74
2022/06/27 01:09:13;;;;;;;;;;;;;;;;;;5053067;28;19928;-75
2022/06/27 01:11:39;;;;;;;;;;;;;;;;;;5053743;28;20399;-74
2022/06/27 01:14:05;;;;;;;;;;;;;;;;;;5053487;28;19909;-74
2022/06/27 01:16:31;;;;;;;;;;;;;;;;;;5052208;28;19991;-73
2022/06/27 01:18:57;;;;;;;;;;;;;;;;;;5053431;28;19909;-72
2022/06/27 01:21:22;;;;;;;;;;;;;;;;;;5053699;28;19916;-75
2022/06/27 01:23:48;;;;;;;;;;;;;;;;;;5052098;28;19909;-73
2022/06/27 01:26:14;;;;;;;;;;;;;;;;;;5053870;28;19931;-74
2022/06/27 01:28:40;;;;;;;;;;;;;;;;;;5052061;28;19909;-73
2022/06/27 01:31:06;;;;;;;;;;;;;;;;;;5053543;28;19967;-75
2022/06/27 01:33:32;;;;;;;;;;;;;;;;;;5053267;28;19970;-74
2022/06/27 01:38:42;;;;;;;;;;;;;;;;;;5056953;28;19916;-74
2022/06/27 01:41:08;;;;;;;;;;;;;;;;;;5057390;28;20364;-76
2022/06/27 01:43:34;;;;;;;;;;;;;;;;;;5057044;28;19948;-74
2022/06/27 01:46:00;;;;;;;;;;;;;;;;;;5056995;28;20330;-74
2022/06/27 01:48:26;;;;;;;;;;;;;;;;;;5057512;28;19909;-74
2022/06/27 01:50:51;;;;;;;;;;;;;;;;;;5056859;28;19951;-78
2022/06/27 01:53:17;;;;;;;;;;;;;;;;;;5056867;28;19909;-74
2022/06/27 01:55:43;;;;;;;;;;;;;;;;;;5057144;28;19944;-75
2022/06/27 01:58:09;;;;;;;;;;;;;;;;;;5055491;28;19913;-75
2022/06/27 02:00:35;;;;;;;;;;;;;;;;;;5057306;28;19951;-75
2022/06/27 02:03:01;;;;;;;;;;;;;;;;;;5056687;28;19915;-74
2022/06/27 02:05:27;;;;;;;;;;;;;;;;;;5056812;28;19959;-74
2022/06/27 02:07:53;;;;;;;;;;;;;;;;;;5056448;28;20281;-74
2022/06/27 02:10:19;;;;;;;;;;;;;;;;;;5056501;28;20011;-75
2022/06/27 02:12:44;;;;;;;;;;;;;;;;;;5056516;28;19982;-75
2022/06/27 02:15:10;;;;;;;;;;;;;;;;;;5056472;28;19955;-74
2022/06/27 02:17:36;;;;;;;;;;;;;;;;;;5056715;28;20288;-76
2022/06/27 02:20:02;;;;;;;;;;;;;;;;;;5055115;28;19909;-74
2022/06/27 02:22:28;;;;;;;;;;;;;;;;;;5055039;28;20311;-74
2022/06/27 02:24:54;;;;;;;;;;;;;;;;;;5056302;28;19909;-74
2022/06/27 02:27:20;;;;;;;;;;;;;;;;;;5056543;28;20018;-75
2022/06/27 02:29:46;;;;;;;;;;;;;;;;;;5056389;28;19912;-74
2022/06/27 02:32:12;;;;;;;;;;;;;;;;;;5056182;28;19939;-74
2022/06/27 02:34:38;;;;;;;;;;;;;;;;;;5056355;28;19909;-75
2022/06/27 02:37:03;;;;;;;;;;;;;;;;;;5056074;28;19909;-76
2022/06/27 02:39:31;;;;;;;;;;;;;;;;;;5056012;28;19935;-75
2022/06/27 02:41:57;;;;;;;;;;;;;;;;;;5055989;28;20346;-76
2022/06/27 02:44:23;;;;;;;;;;;;;;;;;;5055930;28;19908;-73
2022/06/27 02:46:48;;;;;;;;;;;;;;;;;;5055114;28;20003;-74
2022/06/27 02:49:14;;;;;;;;;;;;;;;;;;5055783;28;19915;-74
2022/06/27 02:51:41;;;;;;;;;;;;;;;;;;5056092;28;19909;-74
2022/06/27 02:54:07;;;;;;;;;;;;;;;;;;5054189;28;19909;-74
2022/06/27 02:56:33;;;;;;;;;;;;;;;;;;5055969;28;19955;-75
2022/06/27 02:58:59;;;;;;;;;;;;;;;;;;5055670;28;20300;-75
2022/06/27 03:01:25;;;;;;;;;;;;;;;;;;5055592;28;20007;-76
2022/06/27 03:03:51;;;;;;;;;;;;;;;;;;5056130;28;20432;-77
2022/06/27 03:06:17;;;;;;;;;;;;;;;;;;5055344;28;19913;-75
2022/06/27 03:08:43;;;;;;;;;;;;;;;;;;5055388;28;19925;-76
2022/06/27 03:11:09;;;;;;;;;;;;;;;;;;5055939;28;19913;-72
2022/06/27 03:13:35;;;;;;;;;;;;;;;;;;5055397;28;19909;-73
2022/06/27 03:16:00;;;;;;;;;;;;;;;;;;5055345;28;20023;-74
2022/06/27 03:18:26;;;;;;;;;;;;;;;;;;5055300;28;19909;-74
2022/06/27 03:20:52;;;;;;;;;;;;;;;;;;5055509;28;19909;-74
2022/06/27 03:23:18;;;;;;;;;;;;;;;;;;5055217;28;20392;-73
2022/06/27 03:25:44;;;;;;;;;;;;;;;;;;5055432;28;19908;-74
2022/06/27 03:28:10;;;;;;;;;;;;;;;;;;5055091;28;20299;-73
2022/06/27 03:30:37;;;;;;;;;;;;;;;;;;5055270;28;19919;-74
2022/06/27 03:33:03;;;;;;;;;;;;;;;;;;5053593;28;19940;-74
2022/06/27 03:35:29;;;;;;;;;;;;;;;;;;5055248;28;19916;-74
2022/06/27 03:37:55;;;;;;;;;;;;;;;;;;5054947;28;20387;-74
2022/06/27 03:40:20;;;;;;;;;;;;;;;;;;5054903;28;19909;-73
2022/06/27 03:42:46;;;;;;;;;;;;;;;;;;5053529;28;20281;-74
2022/06/27 03:45:12;;;;;;;;;;;;;;;;;;5053485;28;19913;-74
2022/06/27 03:47:38;;;;;;;;;;;;;;;;;;5053470;28;19909;-75
2022/06/27 03:50:04;;;;;;;;;;;;;;;;;;5053359;28;19913;-74
2022/06/27 03:52:30;;;;;;;;;;;;;;;;;;5054644;28;19967;-75
2022/06/27 03:54:56;;;;;;;;;;;;;;;;;;5054572;28;19999;-74
2022/06/27 03:57:22;;;;;;;;;;;;;;;;;;5054638;28;19958;-74
2022/06/27 03:59:48;;;;;;;;;;;;;;;;;;5054480;28;20335;-74
2022/06/27 04:02:16;;;;;;;;;;;;;;;;;;5054722;28;19909;-76
2022/06/27 04:04:42;;;;;;;;;;;;;;;;;;5053184;28;19909;-75
2022/06/27 04:07:07;;;;;;;;;;;;;;;;;;5054064;28;19915;-76
2022/06/27 04:09:33;;;;;;;;;;;;;;;;;;5054878;28;19912;-75
2022/06/27 04:12:00;;;;;;;;;;;;;;;;;;5054269;28;19913;-72
2022/06/27 04:14:26;;;;;;;;;;;;;;;;;;5054557;28;19909;-74
2022/06/27 04:16:52;;;;;;;;;;;;;;;;;;5054167;28;19908;-75
2022/06/27 04:19:18;;;;;;;;;;;;;;;;;;5054162;28;20365;-75
2022/06/27 04:21:43;;;;;;;;;;;;;;;;;;5054097;28;19994;-73
2022/06/27 04:24:09;;;;;;;;;;;;;;;;;;5054068;28;20300;-74
2022/06/27 04:26:36;;;;;;;;;;;;;;;;;;5054065;28;19915;-75
2022/06/27 04:29:02;;;;;;;;;;;;;;;;;;5054290;28;19908;-72
2022/06/27 04:31:28;;;;;;;;;;;;;;;;;;5053867;28;19913;-75
2022/06/27 04:33:54;;;;;;;;;;;;;;;;;;5052672;28;20384;-75
2022/06/27 04:36:21;;;;;;;;;;;;;;;;;;5054190;28;19948;-73
2022/06/27 04:38:47;;;;;;;;;;;;;;;;;;5053863;28;20292;-73
2022/06/27 04:41:13;;;;;;;;;;;;;;;;;;5054386;28;20371;-75
2022/06/27 04:43:39;;;;;;;;;;;;;;;;;;5053821;28;20288;-76
2022/06/27 04:46:05;;;;;;;;;;;;;;;;;;5053809;28;19909;-74
2022/06/27 04:48:32;;;;;;;;;;;;;;;;;;5052460;28;20410;-74
2022/06/27 04:50:59;;;;;;;;;;;;;;;;;;5053633;28;19912;-74
2022/06/27 04:53:24;;;;;;;;;;;;;;;;;;5053715;28;19916;-76
2022/06/27 04:55:51;;;;;;;;;;;;;;;;;;5053915;28;19910;-75
2022/06/27 04:58:17;;;;;;;;;;;;;;;;;;5053887;28;19932;-74
2022/06/27 05:00:44;;;;;;;;;;;;;;;;;;5053869;28;20383;-75
2022/06/27 05:03:10;;;;;;;;;;;;;;;;;;5053838;28;19919;-74
2022/06/27 05:05:36;;;;;;;;;;;;;;;;;;5053479;28;19909;-75
2022/06/27 05:08:02;;;;;;;;;;;;;;;;;;5053313;28;19927;-76
2022/06/27 05:10:28;;;;;;;;;;;;;;;;;;5054932;28;19917;-72
2022/06/27 05:12:54;;;;;;;;;;;;;;;;;;5057712;28;19936;-75
2022/06/27 05:15:19;;;;;;;;;;;;;;;;;;5057645;28;19955;-74
2022/06/27 05:17:45;;;;;;;;;;;;;;;;;;5056303;28;20353;-73
2022/06/27 05:20:12;;;;;;;;;;;;;;;;;;5057546;28;19908;-74
2022/06/27 05:22:38;;;;;;;;;;;;;;;;;;5058011;28;19908;-74
2022/06/27 05:25:04;;;;;;;;;;;;;;;;;;5057704;28;19916;-74
2022/06/27 05:27:30;;;;;;;;;;;;;;;;;;5057934;28;19913;-74
2022/06/27 05:29:56;;;;;;;;;;;;;;;;;;5057279;28;19913;-77
2022/06/27 05:32:22;;;;;;;;;;;;;;;;;;5057912;28;20353;-73
2022/06/27 05:34:48;;;;;;;;;;;;;;;;;;5057256;28;19908;-75
2022/06/27 05:37:14;;;;;;;;;;;;;;;;;;5057228;28;19909;-74
2022/06/27 05:39:43;;;;;;;;;;;;;;;;;;5055855;28;20300;-74
2022/06/27 05:42:09;;;;;;;;;;;;;;;;;;5057150;28;19915;-73
2022/06/27 05:44:35;;;;;;;;;;;;;;;;;;5057327;28;20448;-74
2022/06/27 05:47:01;;;;;;;;;;;;;;;;;;5055753;28;19960;-76
2022/06/27 05:49:27;;;;;;;;;;;;;;;;;;5057160;28;19909;-74
2022/06/27 05:51:54;;;;;;;;;;;;;;;;;;5056964;28;19981;-74
2022/06/27 05:54:21;;;;;;;;;;;;;;;;;;5056842;28;20372;-75
2022/06/27 05:56:48;;;;;;;;;;;;;;;;;;5057428;28;20281;-76
2022/06/27 05:59:14;;;;;;;;;;;;;;;;;;5056792;28;19908;-74
2022/06/27 06:01:40;;;;;;;;;;;;;;;;;;5055511;28;19994;-74
2022/06/27 06:04:06;;;;;;;;;;;;;;;;;;5057258;28;20360;-74
2022/06/27 06:06:32;;;;;;;;;;;;;;;;;;5056592;28;19959;-74
2022/06/27 06:08:59;;;;;;;;;;;;;;;;;;5054958;28;19921;-75
2022/06/27 06:11:25;;;;;;;;;;;;;;;;;;5056761;28;19913;-74
2022/06/27 06:13:52;;;;;;;;;;;;;;;;;;5056498;28;19970;-73
2022/06/27 06:16:20;;;;;;;;;;;;;;;;;;5056730;28;20053;-77
2022/06/27 06:18:47;;;;;;;;;;;;;;;;;;5056739;28;20019;-74
2022/06/27 06:21:13;;;;;;;;;;;;;;;;;;5055102;28;19913;-73
2022/06/27 06:23:39;;;;;;;;;;;;;;;;;;5056886;28;19909;-74
2022/06/27 06:26:05;;;;;;;;;;;;;;;;;;5056288;28;20432;-75
2022/06/27 06:28:32;;;;;;;;;;;;;;;;;;5056550;28;19958;-75
2022/06/27 06:30:57;;;;;;;;;;;;;;;;;;5056428;28;19920;-75
2022/06/27 06:33:24;;;;;;;;;;;;;;;;;;5056214;28;19909;-75
2022/06/27 06:35:50;;;;;;;;;;;;;;;;;;5056721;28;19913;-75
2022/06/27 06:38:16;;;;;;;;;;;;;;;;;;5056073;28;19916;-73
2022/06/27 06:40:42;;;;;;;;;;;;;;;;;;5056052;28;20010;-74
2022/06/27 06:43:07;;;;;;;;;;;;;;;;;;5056301;28;19909;-75
2022/06/27 06:45:33;;;;;;;;;;;;;;;;;;5055957;28;19948;-75
2022/06/27 06:47:59;;;;;;;;;;;;;;;;;;5056185;28;20015;-74
2022/06/27 06:50:25;;;;;;;;;;;;;;;;;;5055590;28;19917;-74
2022/06/27 06:52:51;;;;;;;;;;;;;;;;;;5055808;28;19909;-75
2022/06/27 06:55:17;;;;;;;;;;;;;;;;;;5045949;28;20439;-78
2022/06/27 06:57:43;;;;;;;;;;;;;;;;;;5036414;28;19955;-78
2022/06/27 07:00:09;;;;;;;;;;;;;;;;;;5037518;28;20016;-74
2022/06/27 07:02:35;;;;;;;;;;;;;;;;;;5038403;28;20009;-78
2022/06/27 07:05:02;;;;;;;;;;;;;;;;;;5067599;28;20320;-78
2022/06/27 07:07:28;;;;;;;;;;;;;;;;;;5070396;28;19971;-78
2022/06/27 07:09:53;;;;;;;;;;;;;;;;;;5055756;28;19917;-77
2022/06/27 07:12:19;;;;;;;;;;;;;;;;;;5054292;28;19913;-79
2022/06/27 07:14:46;;;;;;;;;;;;;;;;;;5056048;28;19915;-78
2022/06/27 07:17:12;;;;;;;;;;;;;;;;;;5048626;28;20007;-79
2022/06/27 07:19:38;;;;;;;;;;;;;;;;;;5041178;28;19998;-77
2022/06/27 07:22:05;;;;;;;;;;;;;;;;;;5054041;28;19908;-76
2022/06/27 07:24:31;;;;;;;;;;;;;;;;;;5050139;28;19920;-76
2022/06/27 07:26:59;;;;;;;;;;;;;;;;;;5043258;28;19913;-78
2022/06/27 07:29:25;;;;;;;;;;;;;;;;;;5054016;28;19916;-77
2022/06/27 07:31:51;;;;;;;;;;;;;;;;;;5037387;28;19913;-77
2022/06/27 07:34:19;;;;;;;;;;;;;;;;;;5035145;28;19956;-75
2022/06/27 07:36:45;;;;;;;;;;;;;;;;;;5049359;28;19997;-78
2022/06/27 07:39:11;;;;;;;;;;;;;;;;;;5055247;28;19908;-79
2022/06/27 07:41:38;;;;;;;;;;;;;;;;;;5052504;28;19996;-77
2022/06/27 07:44:05;;;;;;;;;;;;;;;;;;5067372;28;19909;-75
2022/06/27 07:46:34;;;;;;;;;;;;;;;;;;5041188;28;19909;-73
2022/06/27 07:49:00;;;;;;;;;;;;;;;;;;5055073;28;19913;-75
2022/06/27 07:51:26;;;;;;;;;;;;;;;;;;5054703;28;20289;-75
2022/06/27 07:53:52;;;;;;;;;;;;;;;;;;5055476;28;19909;-77
2022/06/27 07:56:18;;;;;;;;;;;;;;;;;;5042271;28;19913;-76
2022/06/27 07:58:44;;;;;;;;;;;;;;;;;;5040116;28;19963;-79
2022/06/27 08:01:10;;;;;;;;;;;;;;;;;;5053234;28;19956;-78
2022/06/27 08:03:47;;;;;;;;;;;;;;;;;;5054491;28;19916;-77
2022/06/27 08:06:14;;;;;;;;;;;;;;;;;;5046470;28;19916;-76
2022/06/27 08:08:41;;;;;;;;;;;;;;;;;;5051343;28;19925;-78
2022/06/27 08:11:07;;;;;;;;;;;;;;;;;;5054288;28;19912;-77
2022/06/27 08:13:33;;;;;;;;;;;;;;;;;;5054308;28;19932;-79
2022/06/27 08:15:59;;;;;;;;;;;;;;;;;;5045875;28;19913;-79
2022/06/27 08:18:28;;;;;;;;;;;;;;;;;;5052951;28;19937;-80
2022/06/27 08:20:54;;;;;;;;;;;;;;;;;;5049402;28;19909;-80
2022/06/27 08:23:20;;;;;;;;;;;;;;;;;;5066046;28;19913;-79
2022/06/27 08:25:47;;;;;;;;;;;;;;;;;;5034172;28;20365;-79
2022/06/27 08:28:14;;;;;;;;;;;;;;;;;;5066213;28;20353;-80
2022/06/27 08:30:41;;;;;;;;;;;;;;;;;;5066083;28;20293;-81
2022/06/27 08:33:07;;;;;;;;;;;;;;;;;;5034173;28;19909;-80
2022/06/27 08:35:33;;;;;;;;;;;;;;;;;;5034322;28;19917;-78
2022/06/27 08:37:59;;;;;;;;;;;;;;;;;;5054462;28;20369;-78
2022/06/27 08:40:25;;;;;;;;;;;;;;;;;;5054522;28;19909;-79
2022/06/27 08:42:52;;;;;;;;;;;;;;;;;;5046856;28;20436;-76
2022/06/27 08:45:23;;;;;;;;;;;;;;;;;;5033736;28;19971;-74
2022/06/27 08:47:50;;;;;;;;;;;;;;;;;;5046753;28;19912;-77
2022/06/27 08:50:16;;;;;;;;;;;;;;;;;;5053736;28;19944;-73
2022/06/27 08:52:41;;;;;;;;;;;;;;;;;;5052880;28;19916;-74
2022/06/27 08:55:09;;;;;;;;;;;;;;;;;;5041086;28;19920;-76
2022/06/27 08:57:36;;;;;;;;;;;;;;;;;;5033681;28;19909;-74
2022/06/27 09:00:04;;;;;;;;;;;;;;;;;;5032479;28;19913;-75
2022/06/27 09:02:30;;;;;;;;;;;;;;;;;;5032420;28;19920;-76
2022/06/27 09:04:58;;;;;;;;;;;;;;;;;;5033946;28;19909;-74
2022/06/27 09:07:24;;;;;;;;;;;;;;;;;;5033438;28;19918;-75
2022/06/27 09:09:50;;;;;;;;;;;;;;;;;;5033864;28;19917;-75
2022/06/27 09:12:17;;;;;;;;;;;;;;;;;;5033593;28;19988;-74
2022/06/27 09:14:44;;;;;;;;;;;;;;;;;;5032608;28;19913;-75
2022/06/27 09:17:12;;;;;;;;;;;;;;;;;;5053513;28;19913;-79
2022/06/27 09:19:38;;;;;;;;;;;;;;;;;;5055807;28;19909;-77
2022/06/27 09:22:04;;;;;;;;;;;;;;;;;;5048749;28;19932;-78
2022/06/27 09:24:32;;;;;;;;;;;;;;;;;;5040704;28;20011;-80
2022/06/27 09:26:58;;;;;;;;;;;;;;;;;;5053450;28;19948;-78
2022/06/27 09:29:24;;;;;;;;;;;;;;;;;;5052002;28;19909;-78
2022/06/27 09:31:51;;;;;;;;;;;;;;;;;;5041683;28;19913;-77
2022/06/27 09:34:18;;;;;;;;;;;;;;;;;;5032173;28;19909;-78
2022/06/27 09:36:44;;;;;;;;;;;;;;;;;;5033642;28;20354;-80
2022/06/27 09:39:11;;;;;;;;;;;;;;;;;;5031991;28;19913;-80
2022/06/27 09:41:38;;;;;;;;;;;;;;;;;;5033596;28;19975;-79
2022/06/27 09:44:06;;;;;;;;;;;;;;;;;;5032078;28;19932;-80
2022/06/27 09:46:35;;;;;;;;;;;;;;;;;;5032033;28;19909;-76
2022/06/27 09:49:03;;;;;;;;;;;;;;;;;;5045478;28;20007;-78
2022/06/27 09:51:29;;;;;;;;;;;;;;;;;;5038875;28;19924;-77
2022/06/27 09:53:58;;;;;;;;;;;;;;;;;;5033262;28;20320;-79
2022/06/27 09:56:24;;;;;;;;;;;;;;;;;;5067618;28;19932;-78
2022/06/27 09:58:50;;;;;;;;;;;;;;;;;;5068960;28;19914;-79
2022/06/27 10:01:16;;;;;;;;;;;;;;;;;;5036849;28;19909;-78
2022/06/27 10:03:42;;;;;;;;;;;;;;;;;;5037220;28;20384;-79
2022/06/27 10:06:09;;;;;;;;;;;;;;;;;;5052170;28;19931;-77
2022/06/27 10:08:36;;;;;;;;;;;;;;;;;;5056736;28;19925;-78
2022/06/27 10:11:02;;;;;;;;;;;;;;;;;;5056098;28;20008;-77
2022/06/27 10:13:31;;;;;;;;;;;;;;;;;;5056643;28;19963;-81
2022/06/27 10:15:57;;;;;;;;;;;;;;;;;;5057127;28;19916;-76
2022/06/27 10:18:23;;;;;;;;;;;;;;;;;;5055273;28;19909;-78
2022/06/27 10:20:51;;;;;;;;;;;;;;;;;;5038871;28;20403;-79
2022/06/27 10:23:18;;;;;;;;;;;;;;;;;;5071417;28;19935;-79
2022/06/27 10:25:44;;;;;;;;;;;;;;;;;;5036609;28;19992;-77
2022/06/27 10:28:10;;;;;;;;;;;;;;;;;;5036972;28;20360;-77
2022/06/27 10:30:36;;;;;;;;;;;;;;;;;;5042131;28;19923;-75
2022/06/27 10:33:02;;;;;;;;;;;;;;;;;;5053316;28;20100;-75
2022/06/27 10:35:28;;;;;;;;;;;;;;;;;;5053035;28;19909;-76
2022/06/27 10:37:54;;;;;;;;;;;;;;;;;;5053846;28;20331;-74
2022/06/27 10:40:20;;;;;;;;;;;;;;;;;;5054170;28;20000;-75
2022/06/27 10:42:45;;;;;;;;;;;;;;;;;;5054078;28;19909;-76
2022/06/27 10:45:11;;;;;;;;;;;;;;;;;;5054844;28;19963;-75
2022/06/27 10:47:37;;;;;;;;;;;;;;;;;;5054144;28;19931;-75
2022/06/27 10:50:03;;;;;;;;;;;;;;;;;;5055818;28;19912;-75
2022/06/27 10:52:29;;;;;;;;;;;;;;;;;;5055892;28;20007;-75
2022/06/27 10:54:55;;;;;;;;;;;;;;;;;;5054600;28;20376;-75
2022/06/27 10:57:21;;;;;;;;;;;;;;;;;;5055787;28;20055;-74
2022/06/27 10:59:47;;;;;;;;;;;;;;;;;;5055768;28;19966;-74
2022/06/27 11:02:13;;;;;;;;;;;;;;;;;;5055752;28;20254;-75
2022/06/27 11:04:39;;;;;;;;;;;;;;;;;;5055690;28;19915;-76
2022/06/27 11:07:04;;;;;;;;;;;;;;;;;;5054478;28;19912;-75
2022/06/27 11:09:30;;;;;;;;;;;;;;;;;;5053933;28;19923;-75
2022/06/27 11:11:56;;;;;;;;;;;;;;;;;;5056080;28;19963;-74
2022/06/27 11:14:22;;;;;;;;;;;;;;;;;;5055502;28;19909;-75
2022/06/27 11:16:48;;;;;;;;;;;;;;;;;;5055700;28;19909;-75
2022/06/27 11:21:59;;;;;;;;;;;;;;;;;;5055063;28;19916;-75
2022/06/27 11:24:25;;;;;;;;;;;;;;;;;;5054016;28;20365;-74
2022/06/27 11:26:51;;;;;;;;;;;;;;;;;;5055485;28;19913;-75
2022/06/27 11:32:01;;;;;;;;;;;;;;;;;;5054840;28;19920;-75
2022/06/27 11:34:28;;;;;;;;;;;;;;;;;;5055098;28;19909;-75
2022/06/27 11:36:53;;;;;;;;;;;;;;;;;;5055057;28;19908;-74
2022/06/27 11:39:19;;;;;;;;;;;;;;;;;;5054997;28;19947;-75
2022/06/27 11:41:45;;;;;;;;;;;;;;;;;;5055222;28;19909;-76
2022/06/27 11:44:12;;;;;;;;;;;;;;;;;;5054866;28;19909;-75
2022/06/27 11:46:45;;;;;;;;;;;;;;;;;;5055401;28;19909;-77
2022/06/27 11:49:11;;;;;;;;;;;;;;;;;;5054784;28;19940;-75
2022/06/27 11:51:36;;;;;;;;;;;;;;;;;;5054973;28;19993;-74
2022/06/27 11:54:02;;;;;;;;;;;;;;;;;;5054710;28;20031;-75
2022/06/27 11:56:28;;;;;;;;;;;;;;;;;;5054962;28;19944;-74
2022/06/27 11:58:55;;;;;;;;;;;;;;;;;;5054563;28;19970;-75
2022/06/27 12:01:21;;;;;;;;;;;;;;;;;;5053313;28;19909;-75
2022/06/27 12:03:47;;;;;;;;;;;;;;;;;;5053261;28;19954;-75
2022/06/27 12:06:13;;;;;;;;;;;;;;;;;;5054450;28;20364;-75
2022/06/27 12:08:39;;;;;;;;;;;;;;;;;;5054324;28;19943;-78
2022/06/27 12:11:17;;;;;;;;;;;;;;;;;;5040993;28;20439;-80
2022/06/27 12:13:43;;;;;;;;;;;;;;;;;;5053120;28;19916;-78
2022/06/27 12:16:09;;;;;;;;;;;;;;;;;;5042984;28;20277;-78
2022/06/27 12:18:35;;;;;;;;;;;;;;;;;;5034184;28;20285;-79
2022/06/27 12:21:01;;;;;;;;;;;;;;;;;;5032993;28;19916;-78
2022/06/27 12:23:27;;;;;;;;;;;;;;;;;;5034275;28;20010;-79
2022/06/27 12:25:53;;;;;;;;;;;;;;;;;;5034038;28;19952;-78
2022/06/27 12:28:19;;;;;;;;;;;;;;;;;;5034250;28;20005;-76
2022/06/27 12:30:45;;;;;;;;;;;;;;;;;;5032751;28;19913;-80
2022/06/27 12:33:11;;;;;;;;;;;;;;;;;;5034101;28;19909;-77
2022/06/27 12:35:37;;;;;;;;;;;;;;;;;;5052659;28;20392;-79
2022/06/27 12:38:03;;;;;;;;;;;;;;;;;;5042179;28;19912;-80
2022/06/27 12:40:29;;;;;;;;;;;;;;;;;;5054443;28;19916;-79
2022/06/27 12:42:55;;;;;;;;;;;;;;;;;;5053965;28;20000;-78
2022/06/27 12:45:21;;;;;;;;;;;;;;;;;;5053866;28;19913;-78
2022/06/27 12:47:46;;;;;;;;;;;;;;;;;;5053910;28;19963;-74
2022/06/27 12:50:13;;;;;;;;;;;;;;;;;;5054337;28;19921;-77
2022/06/27 12:52:38;;;;;;;;;;;;;;;;;;5051852;28;20303;-75
2022/06/27 12:55:04;;;;;;;;;;;;;;;;;;5034085;28;19917;-84
2022/06/27 12:57:30;;;;;;;;;;;;;;;;;;5035056;28;19925;-81
2022/06/27 12:59:56;;;;;;;;;;;;;;;;;;5051648;28;21415;-79
2022/06/27 13:02:22;;;;;;;;;;;;;;;;;;5043044;28;19913;-73
2022/06/27 13:04:48;;;;;;;;;;;;;;;;;;5040710;28;19974;-77
2022/06/27 13:07:14;;;;;;;;;;;;;;;;;;5053504;28;20391;-82
2022/06/27 13:09:40;;;;;;;;;;;;;;;;;;5051582;28;20338;-82
2022/06/27 13:12:06;;;;;;;;;;;;;;;;;;5051542;28;19912;-74
2022/06/27 13:14:32;;;;;;;;;;;;;;;;;;5047973;28;19959;-79
2022/06/27 13:17:02;;;;;;;;;;;;;;;;;;5035799;28;19919;-81
2022/06/27 13:19:28;;;;;;;;;;;;;;;;;;5065134;28;19920;-79
2022/06/27 13:21:53;;;;;;;;;;;;;;;;;;5036162;28;19916;-73
2022/06/27 13:24:19;;;;;;;;;;;;;;;;;;5041866;28;19908;-77
2022/06/27 13:26:45;;;;;;;;;;;;;;;;;;5051691;28;19928;-82
2022/06/27 13:29:11;;;;;;;;;;;;;;;;;;5068686;28;19920;-72
2022/06/27 13:31:37;;;;;;;;;;;;;;;;;;5054661;28;20376;-76
2022/06/27 13:34:03;;;;;;;;;;;;;;;;;;5056968;28;19913;-74
2022/06/27 13:36:29;;;;;;;;;;;;;;;;;;5053784;28;20380;-76
2022/06/27 13:38:55;;;;;;;;;;;;;;;;;;5037777;28;19916;-77
2022/06/27 13:41:21;;;;;;;;;;;;;;;;;;5069285;28;19928;-78
2022/06/27 13:43:47;;;;;;;;;;;;;;;;;;5042133;28;19937;-79
2022/06/27 13:46:13;;;;;;;;;;;;;;;;;;5054367;28;19923;-81
2022/06/27 13:48:38;;;;;;;;;;;;;;;;;;5054382;28;20361;-81
2022/06/27 13:51:05;;;;;;;;;;;;;;;;;;5057000;28;19939;-79
2022/06/27 13:53:32;;;;;;;;;;;;;;;;;;5055279;28;20007;-80
2022/06/27 13:55:58;;;;;;;;;;;;;;;;;;5055867;28;19912;-78
2022/06/27 13:58:23;;;;;;;;;;;;;;;;;;5056914;28;19955;-78
2022/06/27 14:00:50;;;;;;;;;;;;;;;;;;5042373;28;20288;-79
2022/06/27 14:03:16;;;;;;;;;;;;;;;;;;5068934;28;19909;-79
2022/06/27 14:05:42;;;;;;;;;;;;;;;;;;5041669;28;20306;-79
2022/06/27 14:08:08;;;;;;;;;;;;;;;;;;5048992;28;19921;-81
2022/06/27 14:10:54;;;;;;;;;;;;;;;;;;5051874;28;19995;-81
2022/06/27 14:13:20;;;;;;;;;;;;;;;;;;5038314;28;20408;-81
2022/06/27 14:15:46;;;;;;;;;;;;;;;;;;5037348;28;19921;-81
2022/06/27 14:18:12;;;;;;;;;;;;;;;;;;5039029;28;19920;-78
2022/06/27 14:20:38;;;;;;;;;;;;;;;;;;5047514;28;19909;-78
2022/06/27 14:23:04;;;;;;;;;;;;;;;;;;5056187;28;20284;-75
2022/06/27 14:25:29;;;;;;;;;;;;;;;;;;5056542;28;19908;-81
2022/06/27 14:27:58;;;;;;;;;;;;;;;;;;5050350;28;19967;-81
2022/06/27 14:30:23;;;;;;;;;;;;;;;;;;5042201;28;20394;-82
2022/06/27 14:32:49;;;;;;;;;;;;;;;;;;5034882;28;19913;-82
2022/06/27 14:35:15;;;;;;;;;;;;;;;;;;5068425;28;19909;-79
2022/06/27 14:37:41;;;;;;;;;;;;;;;;;;5041267;28;20011;-79
2022/06/27 14:40:07;;;;;;;;;;;;;;;;;;5039830;28;19936;-76
2022/06/27 14:42:33;;;;;;;;;;;;;;;;;;5034619;28;19913;-76
2022/06/27 14:44:59;;;;;;;;;;;;;;;;;;5036699;28;19909;-77
2022/06/27 14:47:25;;;;;;;;;;;;;;;;;;5036857;28;19913;-79
2022/06/27 14:49:51;;;;;;;;;;;;;;;;;;5034705;28;20399;-78
2022/06/27 14:52:17;;;;;;;;;;;;;;;;;;5068104;28;19909;-77
2022/06/27 14:54:43;;;;;;;;;;;;;;;;;;5067951;28;19909;-76
2022/06/27 14:57:09;;;;;;;;;;;;;;;;;;5036417;28;20007;-76
2022/06/27 14:59:35;;;;;;;;;;;;;;;;;;5035702;28;19936;-78
2022/06/27 15:02:01;;;;;;;;;;;;;;;;;;5035454;28;19939;-78
2022/06/27 15:04:27;;;;;;;;;;;;;;;;;;5035404;28;20000;-77
2022/06/27 15:06:53;;;;;;;;;;;;;;;;;;5035231;28;20373;-77
2022/06/27 15:09:19;;;;;;;;;;;;;;;;;;5066676;28;19932;-77
2022/06/27 15:11:48;;;;;;;;;;;;;;;;;;5035181;28;20007;-78
2022/06/27 15:14:14;;;;;;;;;;;;;;;;;;5067349;28;19992;-77
2022/06/27 15:19:05;;;;;;;;;;;;;;;;;;5035461;28;19916;-77
2022/06/27 15:21:31;;;;;;;;;;;;;;;;;;5035912;28;19917;-77
2022/06/27 15:23:57;;;;;;;;;;;;;;;;;;5035355;28;19916;-78
2022/06/27 15:26:23;;;;;;;;;;;;;;;;;;5067312;28;19909;-76
2022/06/27 15:28:49;;;;;;;;;;;;;;;;;;5035273;28;19941;-78
2022/06/27 15:31:15;;;;;;;;;;;;;;;;;;5035396;28;19964;-78
2022/06/27 15:33:41;;;;;;;;;;;;;;;;;;5035178;28;19939;-76
2022/06/27 15:36:07;;;;;;;;;;;;;;;;;;5035098;28;19921;-77
2022/06/27 15:38:33;;;;;;;;;;;;;;;;;;5035111;28;19955;-78
2022/06/27 15:40:59;;;;;;;;;;;;;;;;;;5035022;28;20328;-76
2022/06/27 15:43:25;;;;;;;;;;;;;;;;;;5034965;28;19909;-78
2022/06/27 15:45:50;;;;;;;;;;;;;;;;;;5034956;28;19913;-76
2022/06/27 15:48:16;;;;;;;;;;;;;;;;;;5034952;28;19910;-78
2022/06/27 15:50:42;;;;;;;;;;;;;;;;;;5035157;28;20012;-79
2022/06/27 15:53:08;;;;;;;;;;;;;;;;;;5034417;28;20418;-79
2022/06/27 15:55:35;;;;;;;;;;;;;;;;;;5034749;28;19910;-77
2022/06/27 15:58:02;;;;;;;;;;;;;;;;;;5034728;28;19913;-78
2022/06/27 16:00:28;;;;;;;;;;;;;;;;;;5034966;28;19932;-76
2022/06/27 16:02:54;;;;;;;;;;;;;;;;;;5034928;28;20353;-77
2022/06/27 16:05:23;;;;;;;;;;;;;;;;;;5034978;28;19909;-77
2022/06/27 16:07:49;;;;;;;;;;;;;;;;;;5034327;28;20381;-78
2022/06/27 16:10:15;;;;;;;;;;;;;;;;;;5034926;28;19920;-78
2022/06/27 16:12:41;;;;;;;;;;;;;;;;;;5034459;28;19995;-76
2022/06/27 16:15:06;;;;;;;;;;;;;;;;;;5034673;28;19944;-76
2022/06/27 16:17:32;;;;;;;;;;;;;;;;;;5066335;28;20250;-77
2022/06/27 16:19:58;;;;;;;;;;;;;;;;;;5034588;28;19959;-77
2022/06/27 16:22:27;;;;;;;;;;;;;;;;;;5034280;28;19909;-77
2022/06/27 16:24:53;;;;;;;;;;;;;;;;;;5034752;28;20281;-77
2022/06/27 16:27:19;;;;;;;;;;;;;;;;;;5066156;28;19909;-77
2022/06/27 16:29:45;;;;;;;;;;;;;;;;;;5066126;28;19909;-77
2022/06/27 16:32:13;;;;;;;;;;;;;;;;;;5033390;28;21446;-78
2022/06/27 16:34:39;;;;;;;;;;;;;;;;;;5034086;28;19909;-79
2022/06/27 16:37:04;;;;;;;;;;;;;;;;;;5034304;28;19910;-77
2022/06/27 16:39:31;;;;;;;;;;;;;;;;;;5034291;28;19920;-76
2022/06/27 16:44:41;;;;;;;;;;;;;;;;;;5033978;28;20407;-77
2022/06/27 16:47:08;;;;;;;;;;;;;;;;;;5033858;28;19910;-77
2022/06/27 16:49:33;;;;;;;;;;;;;;;;;;5065926;28;19960;-76
2022/06/27 16:51:59;;;;;;;;;;;;;;;;;;5034066;28;19948;-80